Time;durP1;ratioP1;P1;durP2;ratioP2;P2;SDS_P1;SDS_P2;PMS_P1;PMS_P2;Temp;Humidity;BMP_temperature;BMP_pressure;BME280_temperature;BME280_humidity;BME280_pressure;Samples;Min_cycle;Max_cycle;Signal;HPM_P1;HPM_P2
2022/05/20 00:00:55;;;;;;;3.50;3.00;;;;;;;;;;5047544;28;24402;-44
2022/05/20 00:03:20;;;;;;;3.60;3.27;;;;;;;;;;5055103;28;24422;-45
2022/05/20 00:05:46;;;;;;;3.70;3.40;;;;;;;;;;5046448;28;24953;-44
2022/05/20 00:08:11;;;;;;;3.40;3.10;;;;;;;;;;5050066;28;24425;-45
2022/05/20 00:10:37;;;;;;;3.40;3.10;;;;;;;;;;5046096;28;24427;-44
2022/05/20 00:13:02;;;;;;;4.40;3.00;;;;;;;;;;5047276;28;24485;-45
2022/05/20 00:15:29;;;;;;;3.50;3.20;;;;;;;;;;5058862;28;24511;-45
2022/05/20 00:17:54;;;;;;;3.17;2.97;;;;;;;;;;5061427;28;24431;-44
2022/05/20 00:20:21;;;;;;;3.70;3.40;;;;;;;;;;5063413;28;24439;-45
2022/05/20 00:22:46;;;;;;;4.10;3.70;;;;;;;;;;5061976;28;24505;-46
2022/05/20 00:27:57;;;;;;;4.03;3.72;;;;;;;;;;5067667;28;24438;-45
2022/05/20 00:30:22;;;;;;;3.53;3.20;;;;;;;;;;5061944;28;24447;-45
2022/05/20 00:32:47;;;;;;;3.60;3.30;;;;;;;;;;5066908;28;24418;-45
2022/05/20 00:35:13;;;;;;;3.87;3.47;;;;;;;;;;5059266;28;24438;-45
2022/05/20 00:37:40;;;;;;;3.90;3.35;;;;;;;;;;5053590;28;24546;-44
2022/05/20 00:40:05;;;;;;;3.97;3.58;;;;;;;;;;5047917;28;24848;-44
2022/05/20 00:42:32;;;;;;;3.90;3.10;;;;;;;;;;5049232;28;24964;-44
2022/05/20 00:44:58;;;;;;;3.55;3.25;;;;;;;;;;5046701;28;24438;-45
2022/05/20 00:47:23;;;;;;;4.57;3.70;;;;;;;;;;5054701;28;24426;-45
2022/05/20 00:49:50;;;;;;;4.20;3.27;;;;;;;;;;5055123;28;24446;-44
2022/05/20 00:52:17;;;;;;;4.95;3.17;;;;;;;;;;5060813;28;24415;-44
2022/05/20 00:54:45;;;;;;;4.90;3.80;;;;;;;;;;5079413;28;25171;-44
2022/05/20 00:57:16;;;;;;;4.22;3.30;;;;;;;;;;5078562;28;24426;-44
2022/05/20 00:59:45;;;;;;;4.00;3.60;;;;;;;;;;5061471;28;24419;-44
2022/05/20 01:02:14;;;;;;;3.67;3.35;;;;;;;;;;5045466;28;24438;-44
2022/05/20 01:04:39;;;;;;;4.13;3.72;;;;;;;;;;5048308;28;24482;-44
2022/05/20 01:07:05;;;;;;;3.97;3.63;;;;;;;;;;5065887;28;24505;-44
2022/05/20 01:09:30;;;;;;;3.92;3.63;;;;;;;;;;5047290;28;24886;-44
2022/05/20 01:11:56;;;;;;;3.50;3.20;;;;;;;;;;5050986;28;25080;-44
2022/05/20 01:14:23;;;;;;;3.80;3.40;;;;;;;;;;5046203;28;24431;-44
2022/05/20 01:16:48;;;;;;;4.22;3.83;;;;;;;;;;5066660;28;24417;-44
2022/05/20 01:19:24;;;;;;;4.03;3.65;;;;;;;;;;5069972;28;24484;-44
2022/05/20 01:21:49;;;;;;;4.60;3.30;;;;;;;;;;5071540;28;24840;-44
2022/05/20 01:24:14;;;;;;;4.32;4.03;;;;;;;;;;5079503;28;25033;-44
2022/05/20 01:26:39;;;;;;;3.85;3.55;;;;;;;;;;5062911;28;24422;-45
2022/05/20 01:29:06;;;;;;;4.13;3.27;;;;;;;;;;5056628;28;24429;-44
2022/05/20 01:31:31;;;;;;;3.90;3.60;;;;;;;;;;5056081;28;24498;-44
2022/05/20 01:33:56;;;;;;;3.88;3.58;;;;;;;;;;5050073;28;24455;-44
2022/05/20 01:36:23;;;;;;;5.40;3.83;;;;;;;;;;5064803;28;25237;-45
2022/05/20 01:38:49;;;;;;;3.70;3.40;;;;;;;;;;5054108;28;24421;-45
2022/05/20 01:41:16;;;;;;;4.30;3.63;;;;;;;;;;5064311;28;24835;-45
2022/05/20 01:43:47;;;;;;;4.00;3.70;;;;;;;;;;5063122;28;24450;-45
2022/05/20 01:46:24;;;;;;;3.60;3.30;;;;;;;;;;5075149;28;24948;-45
2022/05/20 01:48:50;;;;;;;3.75;3.38;;;;;;;;;;5063099;28;24469;-45
2022/05/20 01:51:17;;;;;;;4.37;3.60;;;;;;;;;;5060883;28;24961;-45
2022/05/20 01:53:46;;;;;;;3.70;3.40;;;;;;;;;;5060024;28;24508;-44
2022/05/20 01:56:14;;;;;;;3.70;3.40;;;;;;;;;;5059364;28;25062;-44
2022/05/20 01:58:42;;;;;;;3.40;3.10;;;;;;;;;;5063873;28;24415;-44
2022/05/20 02:01:10;;;;;;;3.75;3.45;;;;;;;;;;5054861;28;25004;-44
2022/05/20 02:03:42;;;;;;;3.75;3.40;;;;;;;;;;5056183;28;25031;-43
2022/05/20 02:06:15;;;;;;;3.75;3.38;;;;;;;;;;5048448;28;25025;-44
2022/05/20 02:08:40;;;;;;;5.05;3.30;;;;;;;;;;5050258;28;24518;-43
2022/05/20 02:11:06;;;;;;;4.20;3.80;;;;;;;;;;5055692;28;24560;-44
2022/05/20 02:13:34;;;;;;;4.10;3.20;;;;;;;;;;5059739;28;25018;-44
2022/05/20 02:16:06;;;;;;;4.50;4.10;;;;;;;;;;5068622;28;24999;-44
2022/05/20 02:18:38;;;;;;;5.40;3.40;;;;;;;;;;5048501;28;24422;-45
2022/05/20 02:21:05;;;;;;;4.68;3.70;;;;;;;;;;5078024;28;24525;-44
2022/05/20 02:23:33;;;;;;;4.30;3.90;;;;;;;;;;5056594;28;24412;-44
2022/05/20 02:26:04;;;;;;;4.00;3.70;;;;;;;;;;5050330;28;24836;-45
2022/05/20 02:28:34;;;;;;;4.10;3.70;;;;;;;;;;5058816;28;24411;-44
2022/05/20 02:30:59;;;;;;;4.70;4.07;;;;;;;;;;5054403;28;24447;-44
2022/05/20 02:33:25;;;;;;;4.20;3.80;;;;;;;;;;5051353;28;24476;-45
2022/05/20 02:35:51;;;;;;;4.20;3.90;;;;;;;;;;5048673;28;24938;-44
2022/05/20 02:38:20;;;;;;;4.30;3.77;;;;;;;;;;5057990;28;24429;-47
2022/05/20 02:40:50;;;;;;;4.43;3.90;;;;;;;;;;5065126;28;24457;-44
2022/05/20 02:43:16;;;;;;;4.95;3.83;;;;;;;;;;5057826;28;24885;-44
2022/05/20 02:45:43;;;;;;;4.20;3.90;;;;;;;;;;5048147;28;25072;-45
2022/05/20 02:48:08;;;;;;;4.38;3.97;;;;;;;;;;5047309;28;24434;-44
2022/05/20 02:50:33;;;;;;;5.33;4.83;;;;;;;;;;5052862;28;24961;-44
2022/05/20 02:53:00;;;;;;;4.53;4.13;;;;;;;;;;5057019;28;24423;-44
2022/05/20 02:55:25;;;;;;;4.20;3.80;;;;;;;;;;5052850;28;24422;-44
2022/05/20 02:57:50;;;;;;;5.40;4.00;;;;;;;;;;5067428;28;24426;-45
2022/05/20 03:05:43;;;;;;;4.50;4.10;;;;;;;;;;5061582;28;24410;-43
2022/05/20 03:08:08;;;;;;;5.00;4.37;;;;;;;;;;5057586;28;24415;-44
2022/05/20 03:10:34;;;;;;;4.63;4.22;;;;;;;;;;5059261;28;24537;-43
2022/05/20 03:13:03;;;;;;;4.88;4.38;;;;;;;;;;5071539;28;24564;-43
2022/05/20 03:15:28;;;;;;;5.70;4.45;;;;;;;;;;5066880;28;24592;-44
2022/05/20 03:17:53;;;;;;;4.90;4.40;;;;;;;;;;5064339;28;25071;-44
2022/05/20 03:20:19;;;;;;;5.25;4.50;;;;;;;;;;5048842;28;24766;-44
2022/05/20 03:22:44;;;;;;;4.43;4.03;;;;;;;;;;5073403;28;24481;-44
2022/05/20 03:25:09;;;;;;;5.27;3.90;;;;;;;;;;5066242;28;24462;-45
2022/05/20 03:27:34;;;;;;;5.80;4.50;;;;;;;;;;5071043;28;24480;-45
2022/05/20 03:29:59;;;;;;;4.97;4.57;;;;;;;;;;5055400;28;24436;-44
2022/05/20 03:32:24;;;;;;;4.50;4.20;;;;;;;;;;5062558;28;24480;-45
2022/05/20 03:34:49;;;;;;;5.43;4.50;;;;;;;;;;5052004;28;24529;-45
2022/05/20 03:37:15;;;;;;;4.80;4.40;;;;;;;;;;5047473;28;24423;-45
2022/05/20 03:39:40;;;;;;;5.30;4.10;;;;;;;;;;5068846;28;24976;-44
2022/05/20 03:42:05;;;;;;;4.90;4.50;;;;;;;;;;5066415;28;24493;-45
2022/05/20 03:44:31;;;;;;;4.60;4.20;;;;;;;;;;5057485;28;24406;-44
2022/05/20 03:46:56;;;;;;;4.03;3.67;;;;;;;;;;5071426;28;24411;-45
2022/05/20 03:49:22;;;;;;;3.23;3.00;;;;;;;;;;5047765;28;25251;-45
2022/05/20 03:51:49;;;;;;;3.10;2.90;;;;;;;;;;5047509;28;24435;-51
2022/05/20 03:54:15;;;;;;;4.00;2.80;;;;;;;;;;5058624;28;24433;-45
2022/05/20 03:56:40;;;;;;;3.30;3.00;;;;;;;;;;5066382;28;24445;-45
2022/05/20 03:59:08;;;;;;;3.00;2.70;;;;;;;;;;5065911;28;24838;-46
2022/05/20 04:04:17;;;;;;;2.70;2.50;;;;;;;;;;5068474;28;25076;-45
2022/05/20 04:06:42;;;;;;;4.78;2.50;;;;;;;;;;5063059;28;24526;-45
2022/05/20 04:09:07;;;;;;;4.05;2.63;;;;;;;;;;5075854;28;24828;-46
2022/05/20 04:11:33;;;;;;;2.92;2.53;;;;;;;;;;5060468;28;24438;-45
2022/05/20 04:13:58;;;;;;;3.00;2.70;;;;;;;;;;5057157;28;24447;-45
2022/05/20 04:16:23;;;;;;;2.58;2.38;;;;;;;;;;5072384;28;24521;-46
2022/05/20 04:18:48;;;;;;;2.60;2.20;;;;;;;;;;5059744;28;24414;-46
2022/05/20 04:21:14;;;;;;;2.80;2.20;;;;;;;;;;5052030;28;24434;-45
2022/05/20 04:23:40;;;;;;;2.50;2.30;;;;;;;;;;5060341;28;24427;-44
2022/05/20 04:26:06;;;;;;;2.53;2.33;;;;;;;;;;5063570;28;24434;-45
2022/05/20 04:28:31;;;;;;;2.90;2.40;;;;;;;;;;5063340;28;25363;-45
2022/05/20 04:30:57;;;;;;;3.08;2.30;;;;;;;;;;5065324;28;24447;-45
2022/05/20 04:33:23;;;;;;;2.53;2.33;;;;;;;;;;5048105;28;24431;-45
2022/05/20 04:35:48;;;;;;;2.40;2.23;;;;;;;;;;5056951;28;24495;-45
2022/05/20 04:38:13;;;;;;;2.20;2.10;;;;;;;;;;5052109;28;24495;-45
2022/05/20 04:40:38;;;;;;;2.80;2.60;;;;;;;;;;5045401;28;24422;-45
2022/05/20 04:46:56;;;;;;;2.90;2.70;;;;;;;;;;5050905;28;24431;-45
2022/05/20 04:48:33;;;;;;;2.80;2.60;;;;;;;;;;5055829;28;24422;-45
2022/05/20 04:50:58;;;;;;;2.73;2.40;;;;;;;;;;5059693;28;24439;-45
2022/05/20 04:56:07;;;;;;;3.47;2.38;;;;;;;;;;5067079;28;24940;-45
2022/05/20 04:58:32;;;;;;;2.60;2.40;;;;;;;;;;5057963;28;25025;-45
2022/05/20 05:00:58;;;;;;;2.87;2.60;;;;;;;;;;5065052;28;24476;-45
2022/05/20 05:03:23;;;;;;;2.90;2.15;;;;;;;;;;5086197;28;24405;-45
2022/05/20 05:05:48;;;;;;;3.60;2.20;;;;;;;;;;5057894;28;24430;-46
2022/05/20 05:08:14;;;;;;;2.80;2.50;;;;;;;;;;5052518;28;24802;-47
2022/05/20 05:10:39;;;;;;;2.80;2.60;;;;;;;;;;5046892;28;25058;-45
2022/05/20 05:13:05;;;;;;;2.53;2.20;;;;;;;;;;5051102;28;24459;-46
2022/05/20 05:15:30;;;;;;;2.53;2.33;;;;;;;;;;5051950;28;24432;-46
2022/05/20 05:18:14;;;;;;;2.80;2.60;;;;;;;;;;5065254;28;24449;-45
2022/05/20 05:20:42;;;;;;;3.10;2.90;;;;;;;;;;5056512;28;24425;-45
2022/05/20 05:23:07;;;;;;;3.08;2.78;;;;;;;;;;5072809;28;24712;-46
2022/05/20 05:25:33;;;;;;;2.60;2.40;;;;;;;;;;5061211;28;24501;-46
2022/05/20 05:27:58;;;;;;;4.20;3.20;;;;;;;;;;5081750;28;24457;-46
2022/05/20 05:30:24;;;;;;;3.65;3.00;;;;;;;;;;5089787;28;24978;-46
2022/05/20 05:32:49;;;;;;;3.40;3.00;;;;;;;;;;5089486;28;24452;-45
2022/05/20 05:35:17;;;;;;;3.60;3.30;;;;;;;;;;5090332;28;25053;-45
2022/05/20 05:37:43;;;;;;;4.50;4.10;;;;;;;;;;5080422;28;24476;-46
2022/05/20 05:40:09;;;;;;;4.10;3.80;;;;;;;;;;5069670;28;24398;-45
2022/05/20 05:42:35;;;;;;;4.70;4.30;;;;;;;;;;5063846;28;24574;-45
2022/05/20 05:45:00;;;;;;;5.07;4.57;;;;;;;;;;5056127;28;24608;-46
2022/05/20 05:47:25;;;;;;;3.70;3.40;;;;;;;;;;5060941;28;24433;-46
2022/05/20 05:49:51;;;;;;;4.77;4.30;;;;;;;;;;5056812;28;24521;-45
2022/05/20 05:52:16;;;;;;;4.77;4.13;;;;;;;;;;5055000;28;24419;-46
2022/05/20 05:54:41;;;;;;;5.90;4.70;;;;;;;;;;5053915;28;24427;-45
2022/05/20 05:57:06;;;;;;;6.55;5.95;;;;;;;;;;5053180;28;24833;-45
2022/05/20 05:59:32;;;;;;;5.97;5.47;;;;;;;;;;5063562;28;25221;-45
2022/05/20 06:01:58;;;;;;;5.18;4.78;;;;;;;;;;5048912;28;25003;-45
2022/05/20 06:04:23;;;;;;;5.80;5.30;;;;;;;;;;5050167;28;24488;-45
2022/05/20 06:06:48;;;;;;;4.80;4.20;;;;;;;;;;5059662;28;24541;-45
2022/05/20 06:09:13;;;;;;;5.35;4.95;;;;;;;;;;5070118;28;24437;-45
2022/05/20 06:11:39;;;;;;;5.70;4.57;;;;;;;;;;5059212;28;24438;-44
2022/05/20 06:14:06;;;;;;;6.22;5.72;;;;;;;;;;5064074;28;24513;-45
2022/05/20 06:16:32;;;;;;;5.50;5.00;;;;;;;;;;5052331;28;24438;-45
2022/05/20 06:18:57;;;;;;;5.28;4.78;;;;;;;;;;5068146;28;24416;-45
2022/05/20 06:21:22;;;;;;;5.97;4.80;;;;;;;;;;5062371;28;24526;-45
2022/05/20 06:23:47;;;;;;;4.70;4.30;;;;;;;;;;5066788;28;24406;-45
2022/05/20 06:26:12;;;;;;;4.93;4.53;;;;;;;;;;5068169;28;24422;-45
2022/05/20 06:28:37;;;;;;;5.13;4.20;;;;;;;;;;5068559;28;24769;-45
2022/05/20 06:31:03;;;;;;;5.20;4.20;;;;;;;;;;5060103;28;24439;-45
2022/05/20 06:33:28;;;;;;;3.53;3.30;;;;;;;;;;5056396;28;24797;-44
2022/05/20 06:41:21;;;;;;;5.40;5.00;;;;;;;;;;5052269;28;25146;-45
2022/05/20 06:43:46;;;;;;;6.88;5.60;;;;;;;;;;5066200;28;24525;-44
2022/05/20 06:46:12;;;;;;;5.50;5.00;;;;;;;;;;5068172;28;24821;-45
2022/05/20 06:48:38;;;;;;;4.13;3.80;;;;;;;;;;5065871;28;24402;-44
2022/05/20 06:51:07;;;;;;;4.47;4.07;;;;;;;;;;5046995;28;24416;-43
2022/05/20 06:53:32;;;;;;;5.78;5.28;;;;;;;;;;5046264;28;24430;-45
2022/05/20 06:55:57;;;;;;;5.13;4.60;;;;;;;;;;5048799;28;24478;-45
2022/05/20 06:58:23;;;;;;;4.63;4.33;;;;;;;;;;5066896;28;24473;-44
2022/05/20 07:00:48;;;;;;;4.43;4.03;;;;;;;;;;5048067;28;24430;-44
2022/05/20 07:03:13;;;;;;;4.90;4.50;;;;;;;;;;5047623;28;24390;-44
2022/05/20 07:05:38;;;;;;;5.30;4.90;;;;;;;;;;5048042;28;24933;-44
2022/05/20 07:08:03;;;;;;;5.85;5.35;;;;;;;;;;5062922;28;25168;-45
2022/05/20 07:10:29;;;;;;;4.95;4.45;;;;;;;;;;5046671;28;25022;-46
2022/05/20 07:12:54;;;;;;;4.20;3.90;;;;;;;;;;5046877;28;24407;-45
2022/05/20 07:15:19;;;;;;;4.53;4.13;;;;;;;;;;5046224;28;25018;-45
2022/05/20 07:17:46;;;;;;;5.18;4.68;;;;;;;;;;5055749;28;24421;-44
2022/05/20 07:20:11;;;;;;;4.90;4.50;;;;;;;;;;5063826;28;24433;-45
2022/05/20 07:22:36;;;;;;;5.30;4.60;;;;;;;;;;5067084;28;25280;-45
2022/05/20 07:25:02;;;;;;;4.55;4.15;;;;;;;;;;5047233;28;24419;-45
2022/05/20 07:27:28;;;;;;;4.20;3.90;;;;;;;;;;5050014;28;24529;-44
2022/05/20 07:29:53;;;;;;;6.20;5.60;;;;;;;;;;5047108;28;24437;-45
2022/05/20 07:32:18;;;;;;;5.30;4.90;;;;;;;;;;5077278;28;24508;-44
2022/05/20 07:34:44;;;;;;;5.88;5.47;;;;;;;;;;5045103;28;24453;-44
2022/05/20 07:37:09;;;;;;;5.28;4.88;;;;;;;;;;5052176;28;24793;-45
2022/05/20 07:39:34;;;;;;;5.78;5.38;;;;;;;;;;5048046;28;24486;-45
2022/05/20 07:41:59;;;;;;;6.50;6.00;;;;;;;;;;5047253;28;24399;-45
2022/05/20 07:44:25;;;;;;;6.00;5.60;;;;;;;;;;5043989;28;24968;-45
2022/05/20 07:46:50;;;;;;;6.90;6.33;;;;;;;;;;5046962;28;24408;-45
2022/05/20 07:49:15;;;;;;;5.15;4.72;;;;;;;;;;5080456;28;24834;-45
2022/05/20 07:51:42;;;;;;;4.97;4.67;;;;;;;;;;5086908;28;24931;-45
2022/05/20 07:54:19;;;;;;;6.18;5.38;;;;;;;;;;5086899;28;24410;-45
2022/05/20 07:56:49;;;;;;;6.97;6.47;;;;;;;;;;5086960;28;24386;-45
2022/05/20 07:59:16;;;;;;;7.10;6.50;;;;;;;;;;5072199;28;24437;-45
2022/05/20 08:01:42;;;;;;;6.00;5.40;;;;;;;;;;5066823;28;24429;-45
2022/05/20 08:06:56;;;;;;;6.13;5.72;;;;;;;;;;5087141;28;25288;-44
2022/05/20 08:09:22;;;;;;;5.50;5.10;;;;;;;;;;5087720;28;24405;-45
2022/05/20 08:11:47;;;;;;;6.03;5.53;;;;;;;;;;5087138;28;24948;-45
2022/05/20 08:14:12;;;;;;;5.05;4.75;;;;;;;;;;5085585;28;24426;-44
2022/05/20 08:16:37;;;;;;;8.20;7.50;;;;;;;;;;5085340;28;24495;-44
2022/05/20 08:19:03;;;;;;;6.65;6.15;;;;;;;;;;5085536;28;24406;-44
2022/05/20 08:21:28;;;;;;;6.75;6.25;;;;;;;;;;5066818;28;24403;-45
2022/05/20 08:23:54;;;;;;;7.37;6.73;;;;;;;;;;5066622;28;24999;-45
2022/05/20 08:26:19;;;;;;;5.95;5.55;;;;;;;;;;5070991;28;24422;-44
2022/05/20 08:28:44;;;;;;;6.65;6.15;;;;;;;;;;5090842;28;24455;-44
2022/05/20 08:31:10;;;;;;;5.93;5.53;;;;;;;;;;5087478;28;24449;-44
2022/05/20 08:33:35;;;;;;;7.50;6.90;;;;;;;;;;5090424;28;24443;-45
2022/05/20 08:36:01;;;;;;;8.55;7.85;;;;;;;;;;5089299;28;24410;-44
2022/05/20 08:38:26;;;;;;;7.15;6.65;;;;;;;;;;5091264;28;24401;-44
2022/05/20 08:40:52;;;;;;;6.50;6.10;;;;;;;;;;5087599;28;24406;-45
2022/05/20 08:43:21;;;;;;;8.20;7.50;;;;;;;;;;5089088;28;24468;-44
2022/05/20 08:45:46;;;;;;;6.05;5.55;;;;;;;;;;5088857;28;24398;-45
2022/05/20 08:48:11;;;;;;;5.93;5.53;;;;;;;;;;5090022;28;24769;-45
2022/05/20 08:50:38;;;;;;;6.10;5.70;;;;;;;;;;5090509;28;24649;-45
2022/05/20 08:53:06;;;;;;;5.68;5.28;;;;;;;;;;5090828;28;24460;-45
2022/05/20 08:55:31;;;;;;;5.57;5.10;;;;;;;;;;5091011;28;24543;-45
2022/05/20 08:57:57;;;;;;;6.60;6.10;;;;;;;;;;5084683;28;24458;-44
2022/05/20 09:00:23;;;;;;;5.68;5.28;;;;;;;;;;5090864;28;24393;-45
2022/05/20 09:02:48;;;;;;;4.90;4.50;;;;;;;;;;5090263;28;24421;-45
2022/05/20 09:05:13;;;;;;;5.80;5.30;;;;;;;;;;5088557;28;24490;-45
2022/05/20 09:08:00;;;;;;;4.50;4.20;;;;;;;;;;5065790;28;24466;-45
2022/05/20 09:10:46;;;;;;;4.90;4.60;;;;;;;;;;5058121;28;24418;-46
2022/05/20 09:13:12;;;;;;;4.50;4.20;;;;;;;;;;5048280;28;24403;-45
2022/05/20 09:15:43;;;;;;;4.90;4.60;;;;;;;;;;5053575;28;24511;-45
2022/05/20 09:18:08;;;;;;;5.40;5.00;;;;;;;;;;5054266;28;24514;-46
2022/05/20 09:20:37;;;;;;;4.65;3.90;;;;;;;;;;5084045;28;24521;-46
2022/05/20 09:23:04;;;;;;;4.70;4.30;;;;;;;;;;5049957;28;24515;-45
2022/05/20 09:25:32;;;;;;;4.20;3.90;;;;;;;;;;5048815;28;24948;-46
2022/05/20 09:28:14;;;;;;;4.13;3.83;;;;;;;;;;5048731;28;24438;-45
2022/05/20 09:30:41;;;;;;;4.60;4.30;;;;;;;;;;5061787;28;24438;-46
2022/05/20 09:33:11;;;;;;;4.25;3.90;;;;;;;;;;5049531;28;24399;-46
2022/05/20 09:35:36;;;;;;;4.00;3.80;;;;;;;;;;5048423;28;25033;-46
2022/05/20 09:38:08;;;;;;;4.00;3.70;;;;;;;;;;5048533;28;24403;-45
2022/05/20 09:40:33;;;;;;;4.72;4.43;;;;;;;;;;5056981;28;24425;-46
2022/05/20 09:43:01;;;;;;;3.97;3.67;;;;;;;;;;5049383;28;24403;-45
2022/05/20 09:45:27;;;;;;;4.60;4.20;;;;;;;;;;5049014;28;24486;-45
2022/05/20 09:47:54;;;;;;;4.85;4.55;;;;;;;;;;5049166;28;24837;-44
2022/05/20 09:50:28;;;;;;;4.23;3.93;;;;;;;;;;5054526;28;24521;-45
2022/05/20 09:52:53;;;;;;;4.20;4.00;;;;;;;;;;5082763;28;24437;-46
2022/05/20 09:55:37;;;;;;;4.18;3.88;;;;;;;;;;5088697;28;24410;-45
2022/05/20 09:58:16;;;;;;;3.90;3.60;;;;;;;;;;5089289;28;24409;-45
2022/05/20 10:00:43;;;;;;;4.80;4.50;;;;;;;;;;5076621;28;24980;-46
2022/05/20 10:03:14;;;;;;;4.20;4.00;;;;;;;;;;5065676;28;24517;-45
2022/05/20 10:05:47;;;;;;;4.20;3.90;;;;;;;;;;5071113;28;24526;-45
2022/05/20 10:08:15;;;;;;;4.17;3.97;;;;;;;;;;5048971;28;24599;-45
2022/05/20 10:10:43;;;;;;;4.53;4.22;;;;;;;;;;5047459;28;24874;-45
2022/05/20 10:13:27;;;;;;;4.00;3.70;;;;;;;;;;5070057;28;24510;-45
2022/05/20 10:15:58;;;;;;;4.70;4.20;;;;;;;;;;5068277;28;25250;-45
2022/05/20 10:18:31;;;;;;;3.85;3.65;;;;;;;;;;5068975;28;24960;-45
2022/05/20 10:21:15;;;;;;;3.90;3.70;;;;;;;;;;5069151;28;24425;-45
2022/05/20 10:23:48;;;;;;;4.30;4.10;;;;;;;;;;5067516;28;24754;-45
2022/05/20 10:26:24;;;;;;;4.10;3.90;;;;;;;;;;5066613;28;24983;-45
2022/05/20 10:34:31;;;;;;;4.07;3.87;;;;;;;;;;5085046;28;24471;-45
2022/05/20 10:37:00;;;;;;;3.78;3.58;;;;;;;;;;5088355;28;24398;-45
2022/05/20 10:39:33;;;;;;;4.10;3.80;;;;;;;;;;5088741;28;24395;-44
2022/05/20 10:41:58;;;;;;;3.80;3.60;;;;;;;;;;5088532;28;24454;-45
2022/05/20 10:50:28;;;;;;;4.03;3.72;;;;;;;;;;5059679;28;24513;-45
2022/05/20 10:53:12;;;;;;;4.40;4.10;;;;;;;;;;5068164;28;24433;-44
2022/05/20 10:55:37;;;;;;;3.88;3.63;;;;;;;;;;5085509;28;24835;-45
2022/05/20 10:58:21;;;;;;;3.90;3.70;;;;;;;;;;5088542;28;24533;-46
2022/05/20 11:00:50;;;;;;;3.63;3.40;;;;;;;;;;5088123;28;24386;-45
2022/05/20 11:03:34;;;;;;;3.50;3.30;;;;;;;;;;5088090;28;24681;-45
2022/05/20 11:06:18;;;;;;;3.60;3.40;;;;;;;;;;5066070;28;25023;-45
2022/05/20 11:08:53;;;;;;;3.70;3.50;;;;;;;;;;5067645;28;24417;-45
2022/05/20 11:11:34;;;;;;;3.50;3.17;;;;;;;;;;5067854;28;24777;-45
2022/05/20 11:14:12;;;;;;;3.70;3.50;;;;;;;;;;5066835;28;24395;-46
2022/05/20 11:16:49;;;;;;;3.80;3.60;;;;;;;;;;5069439;28;24529;-46
2022/05/20 11:19:17;;;;;;;3.97;3.67;;;;;;;;;;5067916;28;24418;-46
2022/05/20 11:22:05;;;;;;;3.83;3.55;;;;;;;;;;5067257;28;24406;-46
2022/05/20 11:24:36;;;;;;;3.50;3.30;;;;;;;;;;5066722;28;25041;-46
2022/05/20 11:27:08;;;;;;;3.23;3.03;;;;;;;;;;5067753;28;24422;-46
2022/05/20 11:29:39;;;;;;;3.30;3.10;;;;;;;;;;5068138;28;24437;-46
2022/05/20 11:32:05;;;;;;;3.72;3.42;;;;;;;;;;5067633;28;24426;-46
2022/05/20 11:34:48;;;;;;;3.53;3.33;;;;;;;;;;5067160;28;24960;-46
2022/05/20 11:37:25;;;;;;;4.20;3.13;;;;;;;;;;5067559;28;24458;-46
2022/05/20 11:40:11;;;;;;;3.22;3.03;;;;;;;;;;5066878;28;24454;-46
2022/05/20 11:42:54;;;;;;;3.90;3.60;;;;;;;;;;5067471;28;24398;-46
2022/05/20 11:45:38;;;;;;;3.80;3.50;;;;;;;;;;5067494;28;24394;-46
2022/05/20 11:48:09;;;;;;;3.60;3.40;;;;;;;;;;5067366;28;25276;-46
2022/05/20 11:50:49;;;;;;;3.20;3.00;;;;;;;;;;5077167;28;24429;-45
2022/05/20 11:53:34;;;;;;;3.20;3.00;;;;;;;;;;5087438;28;24382;-45
2022/05/20 11:56:14;;;;;;;3.20;3.00;;;;;;;;;;5086588;28;24429;-46
2022/05/20 11:58:41;;;;;;;3.80;3.40;;;;;;;;;;5087451;28;24473;-45
2022/05/20 12:01:07;;;;;;;3.40;3.10;;;;;;;;;;5084017;28;25193;-46
2022/05/20 12:04:06;;;;;;;3.30;3.10;;;;;;;;;;5087162;28;24490;-46
2022/05/20 12:06:20;;;;;;;2.85;2.70;;;;;;;;;;5083407;28;24460;-46
2022/05/20 12:08:48;;;;;;;2.80;2.60;;;;;;;;;;5086952;28;24862;-46
2022/05/20 12:11:22;;;;;;;3.70;3.40;;;;;;;;;;5082592;28;24505;-46
2022/05/20 12:14:02;;;;;;;3.20;3.00;;;;;;;;;;5082252;28;24411;-46
2022/05/20 12:16:27;;;;;;;3.20;3.00;;;;;;;;;;5050506;28;24427;-45
2022/05/20 12:24:39;;;;;;;3.35;3.15;;;;;;;;;;5066428;28;24730;-45
2022/05/20 12:27:12;;;;;;;3.80;3.10;;;;;;;;;;5046652;28;24409;-46
2022/05/20 12:29:37;;;;;;;4.05;3.78;;;;;;;;;;5045508;28;24406;-46
2022/05/20 12:32:22;;;;;;;3.40;3.10;;;;;;;;;;5057187;28;24446;-46
2022/05/20 12:35:03;;;;;;;3.53;3.22;;;;;;;;;;5061280;28;24528;-46
2022/05/20 12:37:40;;;;;;;3.90;3.60;;;;;;;;;;5045911;28;24402;-46
2022/05/20 12:40:14;;;;;;;3.78;3.53;;;;;;;;;;5045705;28;24424;-46
2022/05/20 12:42:44;;;;;;;3.00;2.80;;;;;;;;;;5065535;28;24512;-46
2022/05/20 12:45:09;;;;;;;4.10;3.80;;;;;;;;;;5069824;28;24434;-46
2022/05/20 12:47:37;;;;;;;3.50;3.30;;;;;;;;;;5045801;28;24910;-46
2022/05/20 12:50:02;;;;;;;3.60;3.40;;;;;;;;;;5045987;28;24419;-47
2022/05/20 12:52:31;;;;;;;4.30;4.00;;;;;;;;;;5051156;28;24429;-47
2022/05/20 12:54:58;;;;;;;4.00;3.70;;;;;;;;;;5072194;28;25055;-46
2022/05/20 12:57:26;;;;;;;3.50;3.30;;;;;;;;;;5046184;28;24418;-45
2022/05/20 13:00:04;;;;;;;3.80;3.50;;;;;;;;;;5045743;28;24473;-45
2022/05/20 13:02:32;;;;;;;4.38;3.40;;;;;;;;;;5046927;28;24403;-43
2022/05/20 13:05:00;;;;;;;4.20;3.80;;;;;;;;;;5075936;28;24445;-44
2022/05/20 13:07:25;;;;;;;3.70;3.40;;;;;;;;;;5066555;28;24478;-44
2022/05/20 13:09:50;;;;;;;3.63;3.33;;;;;;;;;;5058396;28;24514;-44
2022/05/20 13:12:20;;;;;;;3.93;3.60;;;;;;;;;;5050731;28;25332;-44
2022/05/20 13:14:54;;;;;;;4.43;4.03;;;;;;;;;;5061834;28;24994;-44
2022/05/20 13:17:20;;;;;;;4.40;4.00;;;;;;;;;;5049871;28;24980;-44
2022/05/20 13:19:47;;;;;;;4.37;4.00;;;;;;;;;;5048378;28;24431;-44
2022/05/20 13:22:13;;;;;;;4.40;4.10;;;;;;;;;;5048890;28;24474;-44
2022/05/20 13:24:39;;;;;;;4.10;3.80;;;;;;;;;;5050447;28;24481;-44
2022/05/20 13:27:10;;;;;;;3.90;3.70;;;;;;;;;;5049371;28;24395;-44
2022/05/20 13:29:35;;;;;;;4.18;3.80;;;;;;;;;;5049022;28;24426;-45
2022/05/20 13:32:13;;;;;;;3.97;3.67;;;;;;;;;;5049699;28;24476;-45
2022/05/20 13:34:40;;;;;;;4.20;3.80;;;;;;;;;;5055463;28;24432;-44
2022/05/20 13:37:06;;;;;;;4.20;3.90;;;;;;;;;;5068930;28;24403;-45
2022/05/20 13:39:32;;;;;;;3.60;3.40;;;;;;;;;;5069664;28;24456;-45
2022/05/20 13:41:57;;;;;;;3.67;3.47;;;;;;;;;;5069595;28;24774;-44
2022/05/20 13:44:22;;;;;;;4.60;4.30;;;;;;;;;;5069598;28;24399;-45
2022/05/20 13:49:33;;;;;;;3.60;3.40;;;;;;;;;;5069827;28;24424;-45
2022/05/20 13:52:04;;;;;;;4.13;3.83;;;;;;;;;;5069183;28;24387;-45
2022/05/20 13:54:34;;;;;;;3.97;3.70;;;;;;;;;;5069190;28;24502;-44
2022/05/20 13:57:01;;;;;;;4.20;3.90;;;;;;;;;;5069897;28;24419;-45
2022/05/20 13:59:35;;;;;;;4.03;3.72;;;;;;;;;;5069416;28;24438;-45
2022/05/20 14:02:00;;;;;;;4.20;4.00;;;;;;;;;;5069105;28;24452;-44
2022/05/20 14:04:30;;;;;;;4.25;3.90;;;;;;;;;;5069282;28;24732;-46
2022/05/20 14:06:56;;;;;;;4.05;3.75;;;;;;;;;;5073786;28;24430;-45
2022/05/20 14:09:21;;;;;;;4.13;3.83;;;;;;;;;;5084866;28;24475;-45
2022/05/20 14:11:52;;;;;;;3.95;3.67;;;;;;;;;;5069570;28;24774;-45
2022/05/20 14:14:18;;;;;;;4.00;3.78;;;;;;;;;;5068883;28;24963;-45
2022/05/20 14:16:46;;;;;;;3.80;3.60;;;;;;;;;;5068511;28;24414;-44
2022/05/20 14:19:29;;;;;;;4.32;3.92;;;;;;;;;;5071079;28;24426;-45
2022/05/20 14:22:01;;;;;;;4.10;3.80;;;;;;;;;;5065527;28;24469;-45
2022/05/20 14:24:30;;;;;;;4.15;3.85;;;;;;;;;;5074588;28;24552;-44
2022/05/20 14:26:55;;;;;;;4.40;4.10;;;;;;;;;;5067657;28;24410;-44
2022/05/20 14:29:28;;;;;;;3.77;3.57;;;;;;;;;;5067630;28;24764;-45
2022/05/20 14:32:09;;;;;;;4.10;3.80;;;;;;;;;;5067695;28;24445;-45
2022/05/20 14:34:37;;;;;;;4.80;4.50;;;;;;;;;;5068984;28;24770;-44
2022/05/20 14:37:06;;;;;;;3.85;3.55;;;;;;;;;;5067453;28;24497;-45
2022/05/20 14:39:31;;;;;;;4.20;3.90;;;;;;;;;;5068517;28;24395;-44
2022/05/20 14:42:05;;;;;;;4.70;4.30;;;;;;;;;;5068128;28;24395;-44
2022/05/20 14:44:30;;;;;;;4.30;4.00;;;;;;;;;;5067403;28;24456;-44
2022/05/20 14:47:16;;;;;;;4.30;4.00;;;;;;;;;;5074421;28;24422;-44
2022/05/20 14:49:47;;;;;;;4.30;3.90;;;;;;;;;;5088638;28;24414;-44
2022/05/20 14:52:22;;;;;;;4.10;3.88;;;;;;;;;;5088461;28;24435;-45
2022/05/20 14:54:47;;;;;;;4.85;4.45;;;;;;;;;;5087847;28;24461;-44
2022/05/20 14:57:23;;;;;;;4.27;3.97;;;;;;;;;;5084028;28;24449;-44
2022/05/20 15:00:04;;;;;;;4.93;3.90;;;;;;;;;;5087727;28;24403;-45
2022/05/20 15:02:29;;;;;;;5.65;3.97;;;;;;;;;;5088422;28;24421;-44
2022/05/20 15:04:54;;;;;;;4.40;4.00;;;;;;;;;;5073758;28;24819;-45
2022/05/20 15:07:19;;;;;;;3.97;3.67;;;;;;;;;;5075542;28;24531;-45
2022/05/20 15:09:45;;;;;;;4.00;3.70;;;;;;;;;;5073251;28;24422;-45
2022/05/20 15:12:10;;;;;;;4.50;4.10;;;;;;;;;;5067910;28;25032;-45
2022/05/20 15:14:35;;;;;;;4.03;3.73;;;;;;;;;;5067879;28;24518;-45
2022/05/20 15:17:01;;;;;;;3.75;3.50;;;;;;;;;;5067658;28;24804;-45
2022/05/20 15:19:26;;;;;;;4.00;3.70;;;;;;;;;;5067895;28;24385;-45
2022/05/20 15:21:54;;;;;;;4.18;3.80;;;;;;;;;;5066901;28;24429;-45
2022/05/20 15:24:22;;;;;;;4.47;4.07;;;;;;;;;;5067797;28;24456;-45
2022/05/20 15:26:47;;;;;;;5.00;4.60;;;;;;;;;;5067056;28;25010;-45
2022/05/20 15:29:12;;;;;;;4.40;4.10;;;;;;;;;;5067641;28;24490;-45
2022/05/20 15:37:19;;;;;;;4.45;4.05;;;;;;;;;;5070751;28;24506;-44
2022/05/20 15:39:46;;;;;;;3.80;3.60;;;;;;;;;;5071422;28;24427;-45